Time;durP1;ratioP1;P1;durP2;ratioP2;P2;SDS_P1;SDS_P2;PMS_P1;PMS_P2;Temp;Humidity;BMP_temperature;BMP_pressure;BME280_temperature;BME280_humidity;BME280_pressure;Samples;Min_cycle;Max_cycle;Signal;HPM_P1;HPM_P2
2023/04/17 00:02:14;;;;;;;64.38;44.08;;;12.00;99.90;;;12.31;87.47;102530.94;5054598;28;20429;-70
2023/04/17 00:04:44;;;;;;;63.30;44.97;;;12.00;99.90;;;12.31;87.61;102521.19;5055904;28;20041;-71
2023/04/17 00:07:12;;;;;;;60.53;42.60;;;12.00;99.90;;;12.38;87.33;102535.44;5055414;28;20064;-71
2023/04/17 00:09:41;;;;;;;63.60;44.53;;;12.10;99.90;;;12.41;87.17;102532.81;5055419;28;20037;-70
2023/04/17 00:12:09;;;;;;;65.75;44.70;;;12.10;99.90;;;11.78;87.28;102430.19;5055333;28;20068;-70
2023/04/17 00:14:37;;;;;;;70.25;45.53;;;12.10;99.90;;;12.40;87.18;102542.56;5055339;28;20049;-71
2023/04/17 00:17:06;;;;;;;66.95;44.95;;;12.10;99.90;;;12.34;87.30;102544.22;5055275;28;20501;-71
2023/04/17 00:19:35;;;;;;;67.45;45.03;;;12.00;99.90;;;12.37;87.14;102528.34;5055527;28;20051;-71
2023/04/17 00:22:04;;;;;;;65.72;45.95;;;12.10;99.90;;;12.38;87.31;102543.41;5055225;28;20525;-70
2023/04/17 00:24:32;;;;;;;66.85;46.22;;;12.10;99.90;;;12.36;87.31;102539.84;5055150;28;20044;-70
2023/04/17 00:27:01;;;;;;;64.47;43.67;;;12.10;99.90;;;12.40;87.30;102537.25;5054986;28;20052;-70
2023/04/17 00:29:31;;;;;;;67.68;45.38;;;12.10;99.90;;;12.39;87.35;102543.41;5055331;28;20043;-70
2023/04/17 00:32:00;;;;;;;62.70;44.05;;;12.10;99.90;;;12.38;87.39;102535.44;5053897;28;20053;-70
2023/04/17 00:34:28;;;;;;;63.15;44.85;;;12.10;99.90;;;12.33;87.51;102545.97;5070597;28;20037;-70
2023/04/17 00:36:59;;;;;;;64.07;44.38;;;12.00;99.90;;;12.24;87.36;102527.28;5055210;28;20099;-71
2023/04/17 00:39:27;;;;;;;58.47;40.35;;;12.00;99.90;;;12.31;86.92;102542.41;5055282;28;20047;-70
2023/04/17 00:41:56;;;;;;;57.50;38.80;;;12.00;99.90;;;12.29;87.08;102548.59;5052994;28;20045;-71
2023/04/17 00:44:24;;;;;;;59.72;40.13;;;12.00;99.90;;;12.32;86.85;102551.28;5053515;28;20056;-71
2023/04/17 00:46:53;;;;;;;57.20;38.97;;;12.10;99.90;;;12.34;86.70;102546.88;5055320;28;20048;-71
2023/04/17 00:49:22;;;;;;;57.30;37.92;;;12.10;99.90;;;12.19;87.07;102544.91;5054883;28;20041;-71
2023/04/17 00:51:50;;;;;;;56.63;36.97;;;11.90;99.90;;;12.18;87.22;102537.78;5054969;28;20057;-71
2023/04/17 00:54:22;;;;;;;57.08;39.50;;;11.90;99.90;;;12.20;87.45;102543.09;5070250;28;20045;-71
2023/04/17 00:56:55;;;;;;;55.65;38.42;;;11.90;99.90;;;12.21;87.41;102537.84;5053659;28;20072;-70
2023/04/17 00:59:25;;;;;;;53.53;37.30;;;11.90;99.90;;;12.15;87.46;102536.84;5054843;28;20060;-71
2023/04/17 01:01:53;;;;;;;60.42;38.13;;;11.90;99.90;;;12.21;87.55;102536.94;5055116;28;20120;-71
2023/04/17 01:04:22;;;;;;;69.22;39.95;;;11.90;99.90;;;12.24;87.61;102542.28;5054629;28;20102;-71
2023/04/17 01:06:52;;;;;;;55.67;37.33;;;11.90;99.90;;;12.19;88.06;102538.69;5053349;28;20507;-71
2023/04/17 01:09:22;;;;;;;65.17;38.77;;;11.90;99.90;;;12.27;87.56;102539.69;5053171;28;20075;-70
2023/04/17 01:11:51;;;;;;;58.63;37.13;;;12.00;99.90;;;12.23;87.34;102545.81;5053266;28;20052;-71
2023/04/17 01:14:19;;;;;;;51.40;36.80;;;11.90;99.90;;;12.25;87.30;102547.63;5053184;28;20041;-71
2023/04/17 01:16:47;;;;;;;56.25;36.50;;;11.90;99.90;;;12.24;87.84;102543.19;5053182;28;20080;-71
2023/04/17 01:19:16;;;;;;;60.55;35.97;;;11.90;99.90;;;12.26;87.45;102540.56;5052989;28;20175;-70
2023/04/17 01:21:45;;;;;;;56.30;37.05;;;12.00;99.90;;;12.04;87.67;102527.84;5054104;28;20288;-71
2023/04/17 01:24:14;;;;;;;56.63;36.83;;;11.90;99.90;;;12.17;87.98;102546.63;5054023;28;20505;-71
2023/04/17 01:26:43;;;;;;;56.30;35.55;;;11.80;99.90;;;12.20;87.87;102544.00;5053051;28;20522;-71
2023/04/17 01:29:11;;;;;;;58.85;36.80;;;11.90;99.90;;;12.24;87.65;102537.88;5054168;28;20123;-71
2023/04/17 01:31:40;;;;;;;60.65;37.10;;;11.90;99.90;;;12.19;87.60;102538.69;5052625;28;20061;-71
2023/04/17 01:34:09;;;;;;;56.53;36.25;;;11.90;99.90;;;12.21;87.87;102539.59;5053857;28;20067;-71
2023/04/17 01:36:37;;;;;;;63.40;36.33;;;11.90;99.90;;;12.22;87.90;102549.34;5054040;28;20051;-70
2023/04/17 01:39:06;;;;;;;56.13;35.63;;;11.90;99.90;;;12.21;87.98;102534.31;5054040;28;20051;-71
2023/04/17 01:41:36;;;;;;;60.92;36.88;;;11.90;99.90;;;12.17;88.28;102540.44;5053930;28;20120;-70
2023/04/17 01:44:04;;;;;;;63.78;37.22;;;11.80;99.90;;;12.16;88.22;102542.16;5053956;28;20068;-71
2023/04/17 01:46:33;;;;;;;61.88;36.88;;;11.90;99.90;;;11.98;88.84;102530.38;5068914;28;20044;-71
2023/04/17 01:49:01;;;;;;;62.05;37.15;;;11.80;99.90;;;12.00;89.03;102563.13;5053525;28;20041;-71
2023/04/17 01:51:30;;;;;;;55.22;36.45;;;11.80;99.90;;;11.98;89.05;102546.31;5052532;28;20496;-71
2023/04/17 01:53:58;;;;;;;55.67;35.75;;;11.70;99.90;;;11.93;89.12;102545.31;5053231;28;20071;-71
2023/04/17 01:56:27;;;;;;;51.05;35.03;;;11.70;99.90;;;11.89;89.11;102540.81;5052405;28;20075;-71
2023/04/17 01:58:56;;;;;;;53.47;36.20;;;11.70;99.90;;;11.86;89.10;102538.13;5052346;28;20502;-71
2023/04/17 02:01:25;;;;;;;60.75;37.30;;;11.60;99.90;;;11.75;89.46;102541.47;5068996;28;20060;-71
2023/04/17 02:03:53;;;;;;;53.03;34.83;;;11.50;99.90;;;11.80;89.38;102544.22;5053639;28;20036;-71
2023/04/17 02:06:22;;;;;;;60.72;36.45;;;11.50;99.90;;;11.82;89.43;102541.59;5052261;28;20045;-71
2023/04/17 02:08:50;;;;;;;58.40;35.85;;;11.50;99.90;;;11.76;89.38;102550.34;5052113;28;20076;-71
2023/04/17 02:11:19;;;;;;;56.78;36.30;;;11.60;99.90;;;11.76;89.47;102543.28;5052172;28;20405;-71
2023/04/17 02:13:51;;;;;;;53.35;34.95;;;11.50;99.90;;;11.06;89.42;102410.34;5052206;28;20053;-71
2023/04/17 02:16:21;;;;;;;61.00;35.85;;;11.50;99.90;;;11.77;89.38;102550.34;5052045;28;20045;-71
2023/04/17 02:18:50;;;;;;;54.78;34.53;;;11.50;99.90;;;11.46;89.65;102515.28;5053408;28;20045;-70
2023/04/17 02:21:18;;;;;;;51.58;32.55;;;11.40;99.90;;;11.64;89.73;102539.47;5052004;28;20048;-71
2023/04/17 02:23:47;;;;;;;50.95;32.60;;;11.40;99.90;;;11.65;90.12;102535.97;5052967;28;20098;-71
2023/04/17 02:26:15;;;;;;;49.95;32.60;;;11.40;99.90;;;11.58;89.62;102537.59;5053199;28;20037;-71
2023/04/17 02:28:45;;;;;;;51.70;34.15;;;11.40;99.90;;;11.68;89.66;102529.00;5051769;28;20056;-71
2023/04/17 02:31:13;;;;;;;49.58;32.60;;;11.50;99.90;;;11.77;89.43;102550.34;5051340;28;20528;-71
2023/04/17 02:33:43;;;;;;;45.58;30.98;;;11.50;99.90;;;11.68;89.41;102547.56;5053112;28;20048;-71
2023/04/17 02:36:11;;;;;;;47.10;30.80;;;11.40;99.90;;;11.58;89.37;102529.66;5053105;28;20045;-71
2023/04/17 02:38:42;;;;;;;47.33;31.60;;;11.40;99.90;;;11.74;89.38;102545.00;5051804;28;20049;-71
2023/04/17 02:41:13;;;;;;;44.78;30.52;;;11.40;99.90;;;11.67;89.33;102537.78;5051821;28;20041;-71
2023/04/17 02:43:41;;;;;;;46.38;32.03;;;11.40;99.90;;;11.65;89.37;102544.81;5052993;28;20090;-71
2023/04/17 02:46:10;;;;;;;45.30;30.05;;;11.30;99.90;;;11.68;89.37;102542.25;5052935;28;20056;-71
2023/04/17 02:48:39;;;;;;;42.78;29.20;;;11.40;99.90;;;11.68;89.25;102541.34;5052837;28;20043;-71
2023/04/17 02:51:09;;;;;;;42.13;29.30;;;11.40;99.90;;;11.58;89.45;102532.31;5052808;28;20045;-71
2023/04/17 02:53:37;;;;;;;40.13;29.05;;;11.30;99.90;;;11.61;89.45;102535.00;5052862;28;20048;-71
2023/04/17 02:56:06;;;;;;;40.50;27.83;;;11.30;99.90;;;11.63;89.39;102535.91;5051761;28;20043;-70
2023/04/17 02:58:35;;;;;;;40.72;29.27;;;11.40;99.90;;;11.60;89.58;102538.53;5068276;28;20057;-71
2023/04/17 03:01:05;;;;;;;41.38;29.20;;;11.30;99.90;;;11.38;89.92;102512.50;5051452;28;20055;-71
2023/04/17 03:03:37;;;;;;;40.90;29.27;;;11.30;99.90;;;11.58;90.23;102539.34;5051541;28;20051;-71
2023/04/17 03:06:10;;;;;;;40.85;29.42;;;11.30;99.90;;;11.61;90.48;102537.66;5069820;28;20041;-71
2023/04/17 03:08:39;;;;;;;40.70;29.17;;;11.30;99.90;;;11.64;90.27;102545.66;5056862;28;20429;-71
2023/04/17 03:11:07;;;;;;;44.25;29.35;;;11.30;99.90;;;11.66;90.20;102536.03;5055588;28;20768;-71
2023/04/17 03:13:36;;;;;;;42.05;30.25;;;11.40;99.90;;;11.65;90.13;102535.97;5055516;28;20049;-71
2023/04/17 03:16:06;;;;;;;45.80;30.73;;;11.40;99.90;;;11.64;90.28;102542.13;5056775;28;20112;-70
2023/04/17 03:18:40;;;;;;;46.28;30.15;;;11.40;99.90;;;11.65;90.52;102533.31;5072160;28;20055;-71
2023/04/17 03:21:10;;;;;;;45.55;30.40;;;11.30;99.90;;;11.67;90.39;102543.09;5056731;28;20069;-71
2023/04/17 03:23:38;;;;;;;49.80;32.28;;;11.40;99.90;;;11.58;90.80;102532.31;5056927;28;20114;-71
2023/04/17 03:26:08;;;;;;;48.88;31.67;;;11.30;99.90;;;11.41;91.31;102517.84;5055228;28;20052;-71
2023/04/17 03:28:37;;;;;;;51.83;34.08;;;11.30;99.90;;;11.55;91.38;102531.38;5071840;28;20049;-71
2023/04/17 03:31:05;;;;;;;51.63;34.33;;;11.30;99.90;;;11.53;91.60;102536.66;5054797;28;20080;-71
2023/04/17 03:33:36;;;;;;;54.72;35.20;;;11.20;99.90;;;11.55;91.54;102537.56;5055325;28;20406;-71
2023/04/17 03:36:05;;;;;;;51.30;32.77;;;11.30;99.90;;;11.64;91.46;102542.13;5055143;28;20099;-70
2023/04/17 03:38:36;;;;;;;50.13;32.90;;;11.40;99.90;;;11.55;91.45;102541.97;5071813;28;20088;-71
2023/04/17 03:41:06;;;;;;;46.72;31.35;;;11.30;99.90;;;11.55;91.40;102541.97;5054969;28;20140;-71
2023/04/17 03:43:35;;;;;;;46.17;32.45;;;11.30;99.90;;;11.54;91.49;102543.72;5071629;28;20418;-71
2023/04/17 03:46:03;;;;;;;46.20;32.03;;;11.30;99.90;;;11.53;91.37;102538.38;5055164;28;20491;-71
2023/04/17 03:48:32;;;;;;;42.75;29.52;;;11.30;99.90;;;11.57;91.35;102543.78;5071481;28;20040;-71
2023/04/17 03:51:00;;;;;;;47.67;30.88;;;11.30;99.90;;;11.51;91.49;102546.31;5054675;28;20099;-71
2023/04/17 03:53:30;;;;;;;48.92;31.85;;;11.30;99.90;;;11.55;91.09;102550.81;5054467;28;20052;-70
2023/04/17 03:56:03;;;;;;;43.90;30.55;;;11.30;99.90;;;11.58;91.29;102548.22;5054766;28;20204;-71
2023/04/17 03:58:36;;;;;;;46.75;31.73;;;11.30;99.90;;;11.54;91.24;102545.47;5054736;28;20106;-71
2023/04/17 04:01:09;;;;;;;47.63;31.45;;;11.30;99.90;;;11.52;91.21;102549.84;5071375;28;20080;-71
2023/04/17 04:03:41;;;;;;;47.13;31.67;;;11.30;99.90;;;11.50;91.33;102541.88;5054631;28;20049;-71
2023/04/17 04:06:10;;;;;;;47.55;31.95;;;11.20;99.90;;;11.53;91.49;102551.66;5055844;28;20045;-71
2023/04/17 04:08:39;;;;;;;45.42;31.80;;;11.30;99.90;;;11.53;91.72;102549.91;5054488;28;20084;-71
2023/04/17 04:11:09;;;;;;;50.90;33.45;;;11.30;99.90;;;11.53;91.91;102541.94;5054311;28;20049;-71
2023/04/17 04:13:39;;;;;;;48.55;33.17;;;11.30;99.90;;;11.60;91.92;102548.22;5054437;28;20091;-71
2023/04/17 04:16:09;;;;;;;46.28;32.17;;;11.30;99.90;;;11.58;91.84;102540.25;5055344;28;20554;-71
2023/04/17 04:18:39;;;;;;;44.90;31.08;;;11.30;99.90;;;11.59;91.96;102547.31;5055625;28;20094;-71
2023/04/17 04:21:09;;;;;;;47.15;31.38;;;11.30;99.90;;;11.48;91.89;102551.53;5054182;28;20102;-71
2023/04/17 04:23:41;;;;;;;46.55;31.25;;;11.20;99.90;;;11.50;91.88;102555.13;5054418;28;20052;-71
2023/04/17 04:26:15;;;;;;;46.38;30.98;;;11.20;99.90;;;11.41;91.98;102551.41;5054111;28;20059;-70
2023/04/17 04:28:49;;;;;;;45.85;31.27;;;11.20;99.90;;;11.36;91.85;102546.00;5054120;28;20045;-71
2023/04/17 04:31:28;;;;;;;40.72;28.33;;;11.10;99.90;;;11.37;91.74;102542.50;5053665;28;20143;-70
2023/04/17 04:34:00;;;;;;;46.00;30.42;;;11.10;99.90;;;11.33;91.65;102538.00;5054063;28;20049;-71
2023/04/17 04:36:28;;;;;;;44.83;31.17;;;11.20;99.90;;;11.34;91.66;102547.72;5070688;28;20448;-71
2023/04/17 04:39:24;;;;;;;45.78;30.58;;;11.10;99.90;;;11.41;91.88;102554.06;5053641;28;20041;-71
2023/04/17 04:41:54;;;;;;;49.58;33.45;;;11.20;99.90;;;11.32;92.32;102560.09;5070498;28;20509;-70
2023/04/17 04:44:28;;;;;;;45.50;31.75;;;11.10;99.90;;;11.36;92.33;102548.66;5053847;28;20448;-71
2023/04/17 04:46:58;;;;;;;46.50;32.03;;;11.20;99.90;;;11.40;92.15;102563.75;5070477;28;20048;-71
2023/04/17 04:49:27;;;;;;;49.35;30.30;;;11.10;99.90;;;11.39;92.41;102569.03;5055223;28;20056;-71
2023/04/17 04:51:55;;;;;;;45.35;30.92;;;11.10;99.90;;;11.42;92.47;102567.31;5070332;28;20486;-71
2023/04/17 04:54:29;;;;;;;51.55;31.65;;;11.20;99.90;;;11.30;92.42;102537.97;5070349;28;20044;-71
2023/04/17 04:57:02;;;;;;;43.35;31.42;;;11.20;99.90;;;11.57;92.04;102572.94;5053608;28;20379;-71
2023/04/17 04:59:31;;;;;;;44.10;30.13;;;11.30;99.90;;;11.55;91.98;102564.06;5053526;28;20059;-71
2023/04/17 05:02:26;;;;;;;50.38;31.02;;;11.30;99.90;;;11.54;91.68;102567.56;5052306;28;20558;-71
2023/04/17 05:04:56;;;;;;;50.00;31.73;;;11.30;99.90;;;11.56;91.68;102568.50;5053387;28;20049;-71
2023/04/17 05:07:25;;;;;;;47.20;31.60;;;11.30;99.90;;;11.57;91.84;102574.69;5053352;28;20049;-71
2023/04/17 05:09:54;;;;;;;45.65;30.85;;;11.30;99.90;;;11.57;92.02;102575.59;5053202;28;20045;-71
2023/04/17 05:12:25;;;;;;;47.83;31.83;;;11.30;99.90;;;11.34;92.01;102550.38;5069957;28;20053;-72
2023/04/17 05:14:54;;;;;;;44.13;30.25;;;11.30;99.90;;;11.53;92.22;102581.69;5053282;28;20701;-71
2023/04/17 05:17:22;;;;;;;45.33;30.95;;;11.30;99.90;;;11.44;92.49;102584.16;5054485;28;20437;-71
2023/04/17 05:19:51;;;;;;;49.35;31.13;;;11.30;99.90;;;11.47;92.31;102581.56;5054413;28;20124;-71
2023/04/17 05:22:21;;;;;;;47.03;31.90;;;11.30;99.90;;;11.34;92.49;102589.25;5053374;28;20483;-71
2023/04/17 05:25:02;;;;;;;54.97;32.92;;;11.10;99.90;;;11.50;92.45;102597.53;5053081;28;20044;-71
2023/04/17 05:27:32;;;;;;;48.45;32.75;;;11.20;99.90;;;11.47;92.34;102593.94;5069649;28;20053;-71
2023/04/17 05:30:01;;;;;;;51.75;35.15;;;11.20;99.90;;;11.10;92.19;102525.19;5068827;28;20510;-71
2023/04/17 05:32:30;;;;;;;52.35;33.53;;;11.20;99.90;;;11.29;92.19;102588.25;5052897;28;20053;-71
2023/04/17 05:35:05;;;;;;;51.25;34.22;;;11.10;99.90;;;11.29;92.32;102596.19;5052871;28;20056;-71
2023/04/17 05:37:33;;;;;;;55.60;34.80;;;11.10;99.90;;;11.30;92.44;102598.00;5052722;28;20605;-71
2023/04/17 05:40:02;;;;;;;51.30;34.03;;;11.10;99.90;;;11.38;92.35;102591.97;5054019;28;20132;-71
2023/04/17 05:42:32;;;;;;;53.53;34.50;;;11.10;99.90;;;11.37;92.20;102594.59;5054210;28;20120;-71
2023/04/17 05:45:01;;;;;;;53.97;35.80;;;11.20;99.90;;;11.41;92.24;102602.66;5069204;28;20045;-71
2023/04/17 05:47:29;;;;;;;49.60;33.58;;;11.20;99.90;;;11.42;92.19;102598.25;5068711;28;20437;-71
2023/04/17 05:49:58;;;;;;;53.17;33.25;;;11.20;99.90;;;11.48;91.93;102609.84;5052413;28;20452;-71
2023/04/17 05:52:29;;;;;;;55.08;33.65;;;11.20;99.90;;;11.49;91.67;102601.06;5052518;28;20390;-71
2023/04/17 05:54:57;;;;;;;49.95;32.88;;;11.30;99.90;;;11.51;91.34;102609.94;5052102;28;20071;-71
2023/04/17 05:57:27;;;;;;;52.55;34.53;;;11.30;99.90;;;11.44;91.10;102597.41;5052061;28;20052;-71
2023/04/17 05:59:57;;;;;;;53.70;34.78;;;11.30;99.90;;;11.47;91.30;102601.88;5052246;28;20110;-71
2023/04/17 06:02:25;;;;;;;52.65;34.50;;;11.20;99.90;;;11.51;91.26;102601.06;5052145;28;20072;-71
2023/04/17 06:04:57;;;;;;;53.85;34.80;;;11.30;99.90;;;11.51;91.20;102601.97;5052139;28;20092;-71
2023/04/17 06:07:26;;;;;;;52.78;34.45;;;11.30;99.90;;;11.55;91.17;102609.13;5051839;28;20051;-70
2023/04/17 06:09:54;;;;;;;53.03;34.10;;;11.30;99.90;;;11.53;90.96;102613.50;5053440;28;20102;-71
2023/04/17 06:12:23;;;;;;;50.35;33.90;;;11.30;99.90;;;11.56;90.72;102613.53;5053112;28;20565;-71
2023/04/17 06:14:52;;;;;;;48.38;33.85;;;11.30;99.90;;;11.52;90.81;102617.00;5052074;28;20040;-71
2023/04/17 06:17:24;;;;;;;50.65;32.95;;;11.30;99.90;;;11.47;90.55;102612.47;5051975;28;20076;-71
2023/04/17 06:19:54;;;;;;;46.90;32.92;;;11.30;99.90;;;11.57;90.59;102615.34;5053321;28;20052;-71
2023/04/17 06:22:23;;;;;;;47.30;32.35;;;11.30;99.90;;;11.63;90.30;102617.22;5051987;28;20098;-71
2023/04/17 06:24:51;;;;;;;56.28;33.88;;;11.30;99.90;;;11.68;90.24;102619.13;5051814;28;20470;-71
2023/04/17 06:27:20;;;;;;;48.70;32.58;;;11.40;99.90;;;11.67;90.13;102612.03;5051629;28;20057;-71
2023/04/17 06:29:48;;;;;;;49.22;32.78;;;11.40;99.90;;;11.63;90.06;102606.63;5053335;28;20072;-67
2023/04/17 06:32:17;;;;;;;48.20;32.95;;;11.50;99.90;;;11.66;90.24;102618.19;5051671;28;20055;-73
2023/04/17 06:34:47;;;;;;;51.53;33.20;;;11.40;99.90;;;11.74;90.06;102624.53;5068574;28;20053;-73
2023/04/17 06:37:38;;;;;;;49.45;33.33;;;11.50;99.90;;;11.79;89.94;102617.56;5051755;28;20056;-73
2023/04/17 06:40:11;;;;;;;48.50;32.53;;;11.50;99.90;;;11.84;89.59;102630.91;5050949;28;20048;-74
2023/04/17 06:42:40;;;;;;;50.33;33.92;;;11.60;99.90;;;11.87;89.54;102630.06;5051566;28;20072;-74
2023/04/17 06:45:13;;;;;;;49.97;34.10;;;11.60;99.90;;;11.90;89.13;102631.03;5051652;28;20052;-73
2023/04/17 06:47:42;;;;;;;47.08;32.70;;;11.60;99.90;;;11.95;89.23;102629.34;5068486;28;20106;-74
2023/04/17 06:50:12;;;;;;;47.53;33.00;;;11.70;99.90;;;11.90;88.93;102625.72;5052608;28;20037;-74
2023/04/17 06:52:40;;;;;;;48.58;33.17;;;11.70;99.90;;;11.93;89.17;102628.41;5053011;28;20048;-74
2023/04/17 06:55:10;;;;;;;45.60;32.17;;;11.60;99.90;;;11.97;88.95;102626.72;5052676;28;20657;-74
2023/04/17 06:57:38;;;;;;;50.70;33.08;;;11.70;99.90;;;11.98;88.83;102624.06;5052575;28;20410;-74
2023/04/17 07:00:08;;;;;;;50.58;34.10;;;11.70;99.90;;;12.06;88.61;102629.56;5052473;28;20041;-73
2023/04/17 07:02:37;;;;;;;48.50;32.38;;;11.70;99.90;;;11.83;88.72;102589.34;5052713;28;20490;-76
2023/04/17 07:05:07;;;;;;;47.65;33.17;;;11.80;99.90;;;12.05;88.53;102636.59;5052444;28;20119;-79
2023/04/17 07:07:37;;;;;;;48.63;33.50;;;11.80;99.90;;;12.10;88.45;102642.00;5052437;28;20044;-76
2023/04/17 07:10:07;;;;;;;50.78;33.78;;;11.90;99.90;;;12.11;88.52;102646.44;5052535;28;20053;-75
2023/04/17 07:12:35;;;;;;;45.08;33.10;;;11.80;99.90;;;12.06;88.57;102645.47;5052387;28;20048;-74
2023/04/17 07:15:04;;;;;;;49.05;32.97;;;11.80;99.90;;;12.09;88.57;102653.47;5052384;28;20040;-75
2023/04/17 07:17:34;;;;;;;49.10;33.40;;;11.80;99.90;;;12.14;88.48;102651.78;5052708;28;20069;-77
2023/04/17 07:20:06;;;;;;;48.92;33.22;;;11.90;99.90;;;12.08;88.21;102636.66;5052355;28;20048;-76
2023/04/17 07:22:35;;;;;;;46.33;32.72;;;12.00;99.90;;;12.15;88.00;102653.56;5052277;28;20555;-74
2023/04/17 07:25:05;;;;;;;47.93;33.20;;;11.90;99.90;;;12.13;87.99;102664.16;5052186;28;20037;-75
2023/04/17 07:27:34;;;;;;;47.33;33.72;;;11.90;99.90;;;12.14;87.98;102665.03;5052560;28;20337;-70
2023/04/17 07:30:02;;;;;;;46.40;33.67;;;11.90;99.90;;;12.06;88.07;102662.25;5052300;28;20049;-70
2023/04/17 07:32:31;;;;;;;47.83;33.33;;;11.90;99.90;;;12.10;88.05;102664.09;5052136;28;20037;-72
2023/04/17 07:34:59;;;;;;;50.78;33.20;;;11.90;99.90;;;12.19;88.03;102671.34;5052146;28;20044;-70
2023/04/17 07:37:27;;;;;;;41.60;31.65;;;11.90;99.90;;;12.11;87.87;102673.84;5052184;28;20120;-77
2023/04/17 07:39:58;;;;;;;48.85;33.03;;;11.90;99.90;;;12.20;88.09;102665.16;5052153;28;20156;-70
2023/04/17 07:42:27;;;;;;;50.28;34.10;;;11.90;99.90;;;11.98;87.78;102634.69;5052683;28;20068;-70
2023/04/17 07:44:56;;;;;;;49.40;32.53;;;11.90;99.90;;;12.17;87.93;102667.75;5052257;28;20386;-72
2023/04/17 07:47:24;;;;;;;45.83;31.90;;;11.90;99.90;;;12.26;87.48;102658.19;5052057;28;20099;-72
2023/04/17 07:49:52;;;;;;;47.38;32.67;;;12.00;99.90;;;12.17;87.66;102665.09;5050998;28;20440;-69
2023/04/17 07:52:21;;;;;;;50.00;34.08;;;12.00;99.90;;;12.24;87.60;102677.59;5053623;28;20041;-71
2023/04/17 07:54:49;;;;;;;52.08;35.70;;;12.00;99.90;;;12.22;87.58;102672.28;5055604;28;20048;-68
2023/04/17 07:57:20;;;;;;;48.20;33.63;;;12.00;99.90;;;12.30;87.77;102667.09;5055971;28;20044;-71
2023/04/17 07:59:49;;;;;;;46.10;33.90;;;12.10;99.90;;;12.35;87.39;102673.41;5056048;28;20053;-66
2023/04/17 08:02:18;;;;;;;50.03;35.03;;;12.10;99.90;;;12.34;87.45;102671.59;5055887;28;20040;-68
2023/04/17 08:04:50;;;;;;;53.85;35.65;;;12.10;99.90;;;12.35;87.19;102674.28;5055598;28;20045;-65
2023/04/17 08:07:19;;;;;;;52.33;35.47;;;12.10;99.90;;;12.36;86.97;102678.72;5054456;28;20049;-66
2023/04/17 08:09:49;;;;;;;50.47;35.70;;;12.10;99.90;;;12.36;86.90;102670.78;5055514;28;20462;-67
2023/04/17 08:12:19;;;;;;;48.95;35.25;;;12.20;99.90;;;12.41;86.96;102674.38;5055720;28;20098;-69
2023/04/17 08:14:47;;;;;;;48.87;34.77;;;12.20;99.90;;;12.49;86.80;102669.19;5055697;28;20045;-72
2023/04/17 08:17:19;;;;;;;48.17;34.88;;;12.20;99.90;;;12.58;86.60;102672.03;5055164;28;20288;-74
2023/04/17 08:19:49;;;;;;;50.03;35.67;;;12.40;99.90;;;12.58;86.24;102672.03;5055451;28;20076;-69
2023/04/17 08:22:20;;;;;;;50.45;36.67;;;12.40;99.90;;;12.60;86.06;102670.28;5055029;28;20076;-69
2023/04/17 08:24:48;;;;;;;52.00;36.65;;;12.40;99.90;;;12.53;86.23;102679.00;5055105;28;20048;-70
2023/04/17 08:27:18;;;;;;;50.63;36.00;;;12.30;99.90;;;12.55;86.24;102671.97;5055594;28;20055;-68
2023/04/17 08:29:47;;;;;;;51.10;35.97;;;12.30;99.90;;;12.61;86.52;102672.06;5055711;28;20037;-70
2023/04/17 08:32:15;;;;;;;57.53;38.03;;;12.40;99.90;;;12.49;86.53;102677.16;5053747;28;20509;-69
2023/04/17 08:34:45;;;;;;;55.55;37.35;;;12.30;99.90;;;12.51;86.66;102672.78;5054872;28;20517;-71
2023/04/17 08:37:14;;;;;;;53.05;37.67;;;12.30;99.90;;;12.58;86.87;102666.72;5055273;28;20059;-72
2023/04/17 08:39:42;;;;;;;52.75;37.40;;;12.40;99.90;;;12.48;86.66;102664.78;5055157;28;20051;-70
2023/04/17 08:42:11;;;;;;;53.60;37.88;;;12.30;99.90;;;12.56;86.62;102663.13;5054822;28;20056;-72
2023/04/17 08:44:47;;;;;;;56.65;38.08;;;12.30;99.90;;;12.50;86.69;102665.69;5054842;28;20456;-70
2023/04/17 08:47:18;;;;;;;55.88;39.50;;;12.30;99.90;;;12.47;87.03;102668.28;5054770;28;20041;-73
2023/04/17 08:49:49;;;;;;;52.83;37.17;;;12.30;99.90;;;12.51;87.45;102670.13;5054726;28;20041;-73
2023/04/17 08:52:17;;;;;;;55.45;38.25;;;12.30;99.90;;;12.64;87.01;102669.44;5054570;28;20474;-71
2023/04/17 08:54:46;;;;;;;50.25;36.28;;;12.40;99.90;;;12.72;87.12;102675.78;5070205;28;20574;-72
2023/04/17 08:57:18;;;;;;;51.10;35.90;;;12.50;99.90;;;12.66;87.01;102665.06;5055097;28;20124;-72
2023/04/17 08:59:48;;;;;;;47.50;34.22;;;12.50;99.90;;;12.55;86.29;102675.50;5054455;28;20045;-72
2023/04/17 09:02:16;;;;;;;48.30;34.15;;;12.40;99.90;;;12.66;86.39;102680.97;5053458;28;20049;-73
2023/04/17 09:04:45;;;;;;;45.95;32.85;;;12.40;99.90;;;12.68;86.34;102689.88;5053718;28;20087;-71
2023/04/17 09:07:15;;;;;;;43.60;33.28;;;12.40;99.90;;;12.68;86.26;102664.22;5054304;28;20041;-75
2023/04/17 09:09:49;;;;;;;46.38;33.83;;;12.50;99.90;;;12.66;86.15;102673.00;5054230;28;20053;-73
2023/04/17 09:12:19;;;;;;;49.75;34.75;;;12.50;99.90;;;12.70;85.83;102678.41;5054479;28;20045;-72
2023/04/17 09:14:48;;;;;;;48.15;34.05;;;12.50;99.90;;;12.64;85.31;102677.41;5054186;28;20045;-71
2023/04/17 09:17:19;;;;;;;48.63;34.17;;;12.50;99.90;;;12.51;85.99;102686.03;5053171;28;20143;-70
2023/04/17 09:20:08;;;;;;;45.00;32.92;;;12.30;99.90;;;12.38;85.13;102700.88;5054435;28;20561;-73
2023/04/17 09:22:39;;;;;;;46.40;32.67;;;12.20;99.90;;;12.30;86.14;102675.06;5069625;28;20482;-72
2023/04/17 09:25:17;;;;;;;48.17;33.20;;;12.10;99.90;;;12.48;86.07;102696.63;5054342;28;20169;-72
2023/04/17 09:27:45;;;;;;;46.40;33.03;;;12.20;99.90;;;12.56;85.88;102701.19;5052907;28;20398;-72
2023/04/17 09:30:15;;;;;;;46.13;33.50;;;12.40;99.90;;;12.54;86.33;102696.72;5086248;28;20049;-72
2023/04/17 09:32:44;;;;;;;47.90;32.92;;;12.30;99.90;;;12.71;86.26;102700.56;5054546;28;20045;-72
2023/04/17 09:35:24;;;;;;;45.80;33.33;;;12.40;99.90;;;12.90;85.84;102696.41;5053806;28;20449;-71
2023/04/17 09:37:55;;;;;;;44.55;32.78;;;12.60;99.90;;;12.80;85.42;102695.38;5054102;28;20212;-75
2023/04/17 09:40:24;;;;;;;46.58;33.47;;;12.60;99.90;;;12.79;85.52;102695.34;5052584;28;20227;-72
2023/04/17 09:42:58;;;;;;;43.88;32.30;;;12.50;99.90;;;12.84;84.97;102694.56;5054311;28;20052;-72
2023/04/17 09:45:34;;;;;;;46.20;32.05;;;12.60;99.90;;;12.90;83.80;102730.94;5052985;28;20049;-71
2023/04/17 09:48:06;;;;;;;45.15;32.45;;;12.70;99.90;;;12.93;83.62;102707.09;5053608;28;20033;-71
2023/04/17 09:50:35;;;;;;;48.13;32.22;;;12.70;99.90;;;13.08;83.68;102708.25;5053467;28;20064;-73
2023/04/17 09:53:07;;;;;;;45.45;32.28;;;12.80;99.90;;;12.92;82.58;102686.72;5069102;28;20800;-72
2023/04/17 09:55:36;;;;;;;48.67;31.93;;;12.90;99.90;;;13.13;82.71;102698.59;5054123;28;20421;-71
2023/04/17 09:58:07;;;;;;;44.00;31.27;;;12.90;99.90;;;13.28;81.89;102706.75;5053657;28;20283;-72
2023/04/17 10:00:41;;;;;;;;;;;13.00;99.90;;;13.08;81.82;102708.25;5054384;28;20051;-72
2023/04/17 10:03:10;;;;;;;43.28;30.75;;;12.90;99.90;;;13.36;81.92;102705.13;5053383;28;19960;-72
2023/04/17 10:05:38;;;;;;;48.05;32.42;;;13.10;99.90;;;13.47;81.89;102708.78;5053307;28;20482;-72
2023/04/17 10:08:07;;;;;;;46.33;32.60;;;13.20;99.90;;;13.52;81.22;102706.22;5053198;28;20091;-72
2023/04/17 10:10:36;;;;;;;47.40;32.22;;;13.30;99.90;;;13.56;81.13;102711.59;5053100;28;20044;-72
2023/04/17 10:13:08;;;;;;;53.85;33.47;;;13.30;99.90;;;13.72;80.99;102717.09;5053053;28;20041;-72